sensor_id;sensor_type;location;lat;lon;timestamp;P1;durP1;ratioP1;P2;durP2;ratioP2
19127;SDS011;9696;53.686;10.094;2023-01-28T00:01:21;3.97;;;2.10;;
19127;SDS011;9696;53.686;10.094;2023-01-28T00:03:50;6.13;;;2.20;;
19127;SDS011;9696;53.686;10.094;2023-01-28T00:06:19;4.20;;;2.27;;
19127;SDS011;9696;53.686;10.094;2023-01-28T00:08:50;4.43;;;1.77;;
19127;SDS011;9696;53.686;10.094;2023-01-28T00:11:20;4.63;;;2.27;;
19127;SDS011;9696;53.686;10.094;2023-01-28T00:13:50;3.47;;;1.87;;
19127;SDS011;9696;53.686;10.094;2023-01-28T00:16:19;3.70;;;1.80;;
19127;SDS011;9696;53.686;10.094;2023-01-28T00:18:49;5.10;;;1.60;;
19127;SDS011;9696;53.686;10.094;2023-01-28T00:21:18;5.57;;;2.27;;
19127;SDS011;9696;53.686;10.094;2023-01-28T00:23:49;4.37;;;1.63;;
19127;SDS011;9696;53.686;10.094;2023-01-28T00:26:21;3.83;;;1.93;;
19127;SDS011;9696;53.686;10.094;2023-01-28T00:28:52;3.13;;;2.00;;
19127;SDS011;9696;53.686;10.094;2023-01-28T00:31:22;4.90;;;2.00;;
19127;SDS011;9696;53.686;10.094;2023-01-28T00:33:53;6.40;;;2.10;;
19127;SDS011;9696;53.686;10.094;2023-01-28T00:36:24;1.77;;;1.33;;
19127;SDS011;9696;53.686;10.094;2023-01-28T00:38:55;3.50;;;1.47;;
19127;SDS011;9696;53.686;10.094;2023-01-28T00:41:26;1.70;;;1.10;;
19127;SDS011;9696;53.686;10.094;2023-01-28T00:43:57;1.67;;;1.37;;
19127;SDS011;9696;53.686;10.094;2023-01-28T00:46:28;2.13;;;1.63;;
19127;SDS011;9696;53.686;10.094;2023-01-28T00:48:57;3.27;;;2.23;;
19127;SDS011;9696;53.686;10.094;2023-01-28T00:51:27;7.27;;;2.43;;
19127;SDS011;9696;53.686;10.094;2023-01-28T00:53:57;5.30;;;1.93;;
19127;SDS011;9696;53.686;10.094;2023-01-28T00:56:26;1.93;;;1.43;;
19127;SDS011;9696;53.686;10.094;2023-01-28T00:58:55;3.50;;;1.60;;
19127;SDS011;9696;53.686;10.094;2023-01-28T01:01:25;3.63;;;1.57;;
19127;SDS011;9696;53.686;10.094;2023-01-28T01:03:55;4.60;;;1.47;;
19127;SDS011;9696;53.686;10.094;2023-01-28T01:06:30;3.20;;;1.60;;
19127;SDS011;9696;53.686;10.094;2023-01-28T01:09:03;3.50;;;1.50;;
19127;SDS011;9696;53.686;10.094;2023-01-28T01:11:34;5.00;;;1.40;;
19127;SDS011;9696;53.686;10.094;2023-01-28T01:14:03;3.20;;;1.40;;
19127;SDS011;9696;53.686;10.094;2023-01-28T01:16:32;4.10;;;1.57;;
19127;SDS011;9696;53.686;10.094;2023-01-28T01:19:02;5.40;;;1.33;;
19127;SDS011;9696;53.686;10.094;2023-01-28T01:21:31;7.60;;;2.10;;
19127;SDS011;9696;53.686;10.094;2023-01-28T01:24:00;3.30;;;1.57;;
19127;SDS011;9696;53.686;10.094;2023-01-28T01:26:31;3.50;;;1.77;;
19127;SDS011;9696;53.686;10.094;2023-01-28T01:29:00;2.50;;;1.40;;
19127;SDS011;9696;53.686;10.094;2023-01-28T01:31:29;3.83;;;1.43;;
19127;SDS011;9696;53.686;10.094;2023-01-28T01:33:59;2.40;;;1.33;;
19127;SDS011;9696;53.686;10.094;2023-01-28T01:36:28;2.17;;;1.30;;
19127;SDS011;9696;53.686;10.094;2023-01-28T01:38:57;3.87;;;1.40;;
19127;SDS011;9696;53.686;10.094;2023-01-28T01:41:29;4.60;;;1.70;;
19127;SDS011;9696;53.686;10.094;2023-01-28T01:44:00;1.97;;;1.40;;
19127;SDS011;9696;53.686;10.094;2023-01-28T01:46:33;6.63;;;1.70;;
19127;SDS011;9696;53.686;10.094;2023-01-28T01:49:07;3.40;;;1.17;;
19127;SDS011;9696;53.686;10.094;2023-01-28T01:51:42;3.17;;;1.50;;
19127;SDS011;9696;53.686;10.094;2023-01-28T01:54:15;4.23;;;1.50;;
19127;SDS011;9696;53.686;10.094;2023-01-28T01:56:46;4.13;;;1.80;;
19127;SDS011;9696;53.686;10.094;2023-01-28T01:59:19;9.73;;;1.60;;
19127;SDS011;9696;53.686;10.094;2023-01-28T02:01:52;5.60;;;1.50;;
19127;SDS011;9696;53.686;10.094;2023-01-28T02:04:22;2.60;;;1.50;;
19127;SDS011;9696;53.686;10.094;2023-01-28T02:06:55;3.20;;;1.50;;
19127;SDS011;9696;53.686;10.094;2023-01-28T02:09:27;1.70;;;1.43;;
19127;SDS011;9696;53.686;10.094;2023-01-28T02:12:00;2.20;;;1.20;;
19127;SDS011;9696;53.686;10.094;2023-01-28T02:14:35;2.93;;;1.23;;
19127;SDS011;9696;53.686;10.094;2023-01-28T02:17:07;3.00;;;1.77;;
19127;SDS011;9696;53.686;10.094;2023-01-28T02:19:37;1.63;;;1.37;;
19127;SDS011;9696;53.686;10.094;2023-01-28T02:22:18;4.63;;;1.50;;
19127;SDS011;9696;53.686;10.094;2023-01-28T02:25:30;7.03;;;1.77;;
19127;SDS011;9696;53.686;10.094;2023-01-28T02:28:28;2.73;;;1.43;;
19127;SDS011;9696;53.686;10.094;2023-01-28T02:31:03;2.67;;;1.67;;
19127;SDS011;9696;53.686;10.094;2023-01-28T02:33:40;4.43;;;1.60;;
19127;SDS011;9696;53.686;10.094;2023-01-28T02:36:16;7.37;;;1.90;;
19127;SDS011;9696;53.686;10.094;2023-01-28T02:38:51;3.30;;;1.67;;
19127;SDS011;9696;53.686;10.094;2023-01-28T02:41:23;3.10;;;1.17;;
19127;SDS011;9696;53.686;10.094;2023-01-28T02:44:00;4.63;;;1.27;;
19127;SDS011;9696;53.686;10.094;2023-01-28T02:46:34;1.97;;;1.30;;
19127;SDS011;9696;53.686;10.094;2023-01-28T02:49:23;4.57;;;1.70;;
19127;SDS011;9696;53.686;10.094;2023-01-28T02:52:08;2.10;;;1.30;;
19127;SDS011;9696;53.686;10.094;2023-01-28T02:55:09;1.80;;;1.33;;
19127;SDS011;9696;53.686;10.094;2023-01-28T02:57:46;5.23;;;1.80;;
19127;SDS011;9696;53.686;10.094;2023-01-28T03:00:27;2.33;;;1.50;;
19127;SDS011;9696;53.686;10.094;2023-01-28T03:03:05;2.50;;;1.50;;
19127;SDS011;9696;53.686;10.094;2023-01-28T03:05:43;1.23;;;1.13;;
19127;SDS011;9696;53.686;10.094;2023-01-28T03:08:34;5.07;;;1.63;;
19127;SDS011;9696;53.686;10.094;2023-01-28T03:11:24;1.80;;;1.17;;
19127;SDS011;9696;53.686;10.094;2023-01-28T03:14:13;2.17;;;1.40;;
19127;SDS011;9696;53.686;10.094;2023-01-28T03:17:03;4.47;;;1.40;;
19127;SDS011;9696;53.686;10.094;2023-01-28T03:19:54;3.70;;;1.47;;
19127;SDS011;9696;53.686;10.094;2023-01-28T03:22:41;3.83;;;1.47;;
19127;SDS011;9696;53.686;10.094;2023-01-28T03:25:34;3.57;;;1.30;;
19127;SDS011;9696;53.686;10.094;2023-01-28T03:28:24;5.17;;;2.00;;
19127;SDS011;9696;53.686;10.094;2023-01-28T03:31:16;2.83;;;1.60;;
19127;SDS011;9696;53.686;10.094;2023-01-28T03:34:06;5.20;;;1.23;;
19127;SDS011;9696;53.686;10.094;2023-01-28T03:36:54;1.50;;;1.13;;
19127;SDS011;9696;53.686;10.094;2023-01-28T03:39:31;6.90;;;1.50;;
19127;SDS011;9696;53.686;10.094;2023-01-28T03:42:03;2.70;;;1.30;;
19127;SDS011;9696;53.686;10.094;2023-01-28T03:44:39;4.07;;;1.77;;
19127;SDS011;9696;53.686;10.094;2023-01-28T03:47:21;3.80;;;1.33;;
19127;SDS011;9696;53.686;10.094;2023-01-28T03:49:54;6.50;;;1.43;;
19127;SDS011;9696;53.686;10.094;2023-01-28T03:52:27;7.93;;;1.97;;
19127;SDS011;9696;53.686;10.094;2023-01-28T03:55:20;6.80;;;1.63;;
19127;SDS011;9696;53.686;10.094;2023-01-28T03:57:51;4.33;;;1.50;;
19127;SDS011;9696;53.686;10.094;2023-01-28T04:00:20;3.47;;;1.40;;
19127;SDS011;9696;53.686;10.094;2023-01-28T04:02:49;0.97;;;0.93;;
19127;SDS011;9696;53.686;10.094;2023-01-28T04:05:21;2.30;;;1.37;;
19127;SDS011;9696;53.686;10.094;2023-01-28T04:07:53;3.73;;;1.70;;
19127;SDS011;9696;53.686;10.094;2023-01-28T04:10:54;1.40;;;1.30;;
19127;SDS011;9696;53.686;10.094;2023-01-28T04:13:28;3.90;;;1.77;;
19127;SDS011;9696;53.686;10.094;2023-01-28T04:15:57;10.07;;;2.07;;
19127;SDS011;9696;53.686;10.094;2023-01-28T04:18:34;5.50;;;2.13;;
19127;SDS011;9696;53.686;10.094;2023-01-28T04:21:05;2.47;;;1.70;;
19127;SDS011;9696;53.686;10.094;2023-01-28T04:23:34;4.20;;;1.70;;
19127;SDS011;9696;53.686;10.094;2023-01-28T04:26:04;3.43;;;1.80;;
19127;SDS011;9696;53.686;10.094;2023-01-28T04:28:33;1.87;;;1.30;;
19127;SDS011;9696;53.686;10.094;2023-01-28T04:31:02;2.40;;;1.40;;
19127;SDS011;9696;53.686;10.094;2023-01-28T04:33:54;4.40;;;1.73;;
19127;SDS011;9696;53.686;10.094;2023-01-28T04:36:51;3.90;;;1.57;;
19127;SDS011;9696;53.686;10.094;2023-01-28T04:39:25;3.53;;;1.60;;
19127;SDS011;9696;53.686;10.094;2023-01-28T04:42:08;3.43;;;1.70;;
19127;SDS011;9696;53.686;10.094;2023-01-28T04:45:13;2.87;;;1.77;;
19127;SDS011;9696;53.686;10.094;2023-01-28T04:48:09;3.97;;;1.67;;
19127;SDS011;9696;53.686;10.094;2023-01-28T04:50:53;1.83;;;1.37;;
19127;SDS011;9696;53.686;10.094;2023-01-28T04:53:34;2.37;;;1.40;;
19127;SDS011;9696;53.686;10.094;2023-01-28T04:56:22;4.10;;;1.47;;
19127;SDS011;9696;53.686;10.094;2023-01-28T04:58:51;4.47;;;2.17;;
19127;SDS011;9696;53.686;10.094;2023-01-28T05:01:21;1.83;;;1.47;;
19127;SDS011;9696;53.686;10.094;2023-01-28T05:03:52;2.30;;;1.43;;
19127;SDS011;9696;53.686;10.094;2023-01-28T05:06:24;3.20;;;1.53;;
19127;SDS011;9696;53.686;10.094;2023-01-28T05:08:57;2.47;;;1.57;;
19127;SDS011;9696;53.686;10.094;2023-01-28T05:11:27;4.00;;;1.83;;
19127;SDS011;9696;53.686;10.094;2023-01-28T05:13:59;3.37;;;2.17;;
19127;SDS011;9696;53.686;10.094;2023-01-28T05:16:36;2.63;;;2.00;;
19127;SDS011;9696;53.686;10.094;2023-01-28T05:19:06;6.20;;;2.23;;
19127;SDS011;9696;53.686;10.094;2023-01-28T05:21:39;6.63;;;2.10;;
19127;SDS011;9696;53.686;10.094;2023-01-28T05:24:18;5.37;;;1.60;;
19127;SDS011;9696;53.686;10.094;2023-01-28T05:26:48;3.67;;;2.20;;
19127;SDS011;9696;53.686;10.094;2023-01-28T05:29:17;1.73;;;1.60;;
19127;SDS011;9696;53.686;10.094;2023-01-28T05:31:47;4.67;;;1.93;;
19127;SDS011;9696;53.686;10.094;2023-01-28T05:34:16;2.60;;;1.30;;
19127;SDS011;9696;53.686;10.094;2023-01-28T05:36:45;5.07;;;1.47;;
19127;SDS011;9696;53.686;10.094;2023-01-28T05:39:27;2.10;;;1.80;;
19127;SDS011;9696;53.686;10.094;2023-01-28T05:41:57;1.43;;;1.33;;
19127;SDS011;9696;53.686;10.094;2023-01-28T05:44:26;9.37;;;2.03;;
19127;SDS011;9696;53.686;10.094;2023-01-28T05:47:11;1.93;;;1.30;;
19127;SDS011;9696;53.686;10.094;2023-01-28T05:49:50;2.33;;;1.70;;
19127;SDS011;9696;53.686;10.094;2023-01-28T05:52:46;5.40;;;2.00;;
19127;SDS011;9696;53.686;10.094;2023-01-28T05:55:23;2.13;;;1.47;;
19127;SDS011;9696;53.686;10.094;2023-01-28T05:57:53;4.67;;;1.90;;
19127;SDS011;9696;53.686;10.094;2023-01-28T06:00:24;2.17;;;1.67;;
19127;SDS011;9696;53.686;10.094;2023-01-28T06:02:54;4.37;;;2.00;;
19127;SDS011;9696;53.686;10.094;2023-01-28T06:05:24;3.50;;;1.63;;
19127;SDS011;9696;53.686;10.094;2023-01-28T06:07:53;1.73;;;1.30;;
19127;SDS011;9696;53.686;10.094;2023-01-28T06:10:23;2.60;;;1.40;;
19127;SDS011;9696;53.686;10.094;2023-01-28T06:12:54;2.40;;;1.70;;
19127;SDS011;9696;53.686;10.094;2023-01-28T06:15:25;6.43;;;1.93;;
19127;SDS011;9696;53.686;10.094;2023-01-28T06:18:13;2.63;;;2.10;;
19127;SDS011;9696;53.686;10.094;2023-01-28T06:20:42;3.47;;;2.23;;
19127;SDS011;9696;53.686;10.094;2023-01-28T06:23:11;5.70;;;2.57;;
19127;SDS011;9696;53.686;10.094;2023-01-28T06:25:42;10.80;;;3.37;;
19127;SDS011;9696;53.686;10.094;2023-01-28T06:28:13;11.90;;;3.27;;
19127;SDS011;9696;53.686;10.094;2023-01-28T06:30:42;3.17;;;2.20;;
19127;SDS011;9696;53.686;10.094;2023-01-28T06:33:14;10.53;;;2.63;;
19127;SDS011;9696;53.686;10.094;2023-01-28T06:35:43;3.63;;;2.27;;
19127;SDS011;9696;53.686;10.094;2023-01-28T06:38:13;9.10;;;3.27;;
19127;SDS011;9696;53.686;10.094;2023-01-28T06:40:43;10.27;;;3.27;;
19127;SDS011;9696;53.686;10.094;2023-01-28T06:43:17;6.30;;;3.47;;
19127;SDS011;9696;53.686;10.094;2023-01-28T06:45:46;4.13;;;2.07;;
19127;SDS011;9696;53.686;10.094;2023-01-28T06:48:15;4.47;;;2.07;;
19127;SDS011;9696;53.686;10.094;2023-01-28T06:50:45;6.73;;;3.10;;
19127;SDS011;9696;53.686;10.094;2023-01-28T06:53:14;2.83;;;2.17;;
19127;SDS011;9696;53.686;10.094;2023-01-28T06:55:46;3.63;;;2.30;;
19127;SDS011;9696;53.686;10.094;2023-01-28T06:58:15;4.77;;;2.37;;
19127;SDS011;9696;53.686;10.094;2023-01-28T07:00:44;3.27;;;1.90;;
19127;SDS011;9696;53.686;10.094;2023-01-28T07:03:13;5.90;;;2.50;;
19127;SDS011;9696;53.686;10.094;2023-01-28T07:05:42;8.93;;;2.77;;
19127;SDS011;9696;53.686;10.094;2023-01-28T07:08:11;3.37;;;2.20;;
19127;SDS011;9696;53.686;10.094;2023-01-28T07:10:41;7.47;;;2.67;;
19127;SDS011;9696;53.686;10.094;2023-01-28T07:13:11;7.30;;;2.87;;
19127;SDS011;9696;53.686;10.094;2023-01-28T07:15:40;3.27;;;2.50;;
19127;SDS011;9696;53.686;10.094;2023-01-28T07:18:09;6.27;;;3.50;;
19127;SDS011;9696;53.686;10.094;2023-01-28T07:20:38;4.63;;;3.07;;
19127;SDS011;9696;53.686;10.094;2023-01-28T07:23:07;5.27;;;3.17;;
19127;SDS011;9696;53.686;10.094;2023-01-28T07:25:36;11.13;;;3.33;;
19127;SDS011;9696;53.686;10.094;2023-01-28T07:28:06;10.70;;;3.63;;
19127;SDS011;9696;53.686;10.094;2023-01-28T07:30:36;5.10;;;3.27;;
19127;SDS011;9696;53.686;10.094;2023-01-28T07:33:05;4.80;;;3.00;;
19127;SDS011;9696;53.686;10.094;2023-01-28T07:35:34;9.17;;;4.70;;
19127;SDS011;9696;53.686;10.094;2023-01-28T07:38:03;5.13;;;3.83;;
19127;SDS011;9696;53.686;10.094;2023-01-28T07:40:33;7.33;;;3.83;;
19127;SDS011;9696;53.686;10.094;2023-01-28T07:43:02;8.40;;;3.87;;
19127;SDS011;9696;53.686;10.094;2023-01-28T07:45:38;6.50;;;3.83;;
19127;SDS011;9696;53.686;10.094;2023-01-28T07:48:08;9.33;;;3.93;;
19127;SDS011;9696;53.686;10.094;2023-01-28T07:50:40;8.80;;;5.20;;
19127;SDS011;9696;53.686;10.094;2023-01-28T07:53:10;8.63;;;4.60;;
19127;SDS011;9696;53.686;10.094;2023-01-28T07:55:39;8.27;;;4.47;;
19127;SDS011;9696;53.686;10.094;2023-01-28T07:58:11;8.57;;;4.60;;
19127;SDS011;9696;53.686;10.094;2023-01-28T08:00:42;12.90;;;5.80;;
19127;SDS011;9696;53.686;10.094;2023-01-28T08:03:11;10.20;;;5.57;;
19127;SDS011;9696;53.686;10.094;2023-01-28T08:05:43;9.43;;;5.43;;
19127;SDS011;9696;53.686;10.094;2023-01-28T08:08:14;12.63;;;5.67;;
19127;SDS011;9696;53.686;10.094;2023-01-28T08:10:43;10.80;;;5.20;;
19127;SDS011;9696;53.686;10.094;2023-01-28T08:13:12;15.43;;;6.43;;
19127;SDS011;9696;53.686;10.094;2023-01-28T08:15:44;9.33;;;5.93;;
19127;SDS011;9696;53.686;10.094;2023-01-28T08:18:14;13.20;;;6.33;;
19127;SDS011;9696;53.686;10.094;2023-01-28T08:20:44;16.13;;;6.03;;
19127;SDS011;9696;53.686;10.094;2023-01-28T08:23:14;20.63;;;6.07;;
19127;SDS011;9696;53.686;10.094;2023-01-28T08:25:45;13.27;;;6.23;;
19127;SDS011;9696;53.686;10.094;2023-01-28T08:28:15;12.50;;;6.13;;
19127;SDS011;9696;53.686;10.094;2023-01-28T08:30:46;13.03;;;6.53;;
19127;SDS011;9696;53.686;10.094;2023-01-28T08:33:16;15.00;;;6.40;;
19127;SDS011;9696;53.686;10.094;2023-01-28T08:35:46;9.40;;;5.80;;
19127;SDS011;9696;53.686;10.094;2023-01-28T08:38:15;12.90;;;6.13;;
19127;SDS011;9696;53.686;10.094;2023-01-28T08:40:46;13.30;;;7.10;;
19127;SDS011;9696;53.686;10.094;2023-01-28T08:43:16;14.03;;;6.07;;
19127;SDS011;9696;53.686;10.094;2023-01-28T08:45:47;9.83;;;6.03;;
19127;SDS011;9696;53.686;10.094;2023-01-28T08:48:16;12.33;;;7.10;;
19127;SDS011;9696;53.686;10.094;2023-01-28T08:50:46;15.20;;;7.53;;
19127;SDS011;9696;53.686;10.094;2023-01-28T08:53:17;14.47;;;7.40;;
19127;SDS011;9696;53.686;10.094;2023-01-28T08:55:47;11.27;;;7.17;;
19127;SDS011;9696;53.686;10.094;2023-01-28T08:58:16;15.23;;;7.97;;
19127;SDS011;9696;53.686;10.094;2023-01-28T09:00:47;11.77;;;7.00;;
19127;SDS011;9696;53.686;10.094;2023-01-28T09:03:17;13.13;;;7.23;;
19127;SDS011;9696;53.686;10.094;2023-01-28T09:05:46;11.80;;;7.07;;
19127;SDS011;9696;53.686;10.094;2023-01-28T09:08:16;14.17;;;6.80;;
19127;SDS011;9696;53.686;10.094;2023-01-28T09:10:45;12.50;;;6.60;;
19127;SDS011;9696;53.686;10.094;2023-01-28T09:13:14;14.53;;;6.77;;
19127;SDS011;9696;53.686;10.094;2023-01-28T09:15:43;12.57;;;6.30;;
19127;SDS011;9696;53.686;10.094;2023-01-28T09:18:14;13.53;;;6.93;;
19127;SDS011;9696;53.686;10.094;2023-01-28T09:20:43;11.30;;;6.70;;
19127;SDS011;9696;53.686;10.094;2023-01-28T09:23:13;11.87;;;7.63;;
19127;SDS011;9696;53.686;10.094;2023-01-28T09:25:42;13.97;;;7.20;;
19127;SDS011;9696;53.686;10.094;2023-01-28T09:28:11;11.00;;;6.27;;
19127;SDS011;9696;53.686;10.094;2023-01-28T09:30:40;11.20;;;5.87;;
19127;SDS011;9696;53.686;10.094;2023-01-28T09:33:09;13.83;;;6.83;;
19127;SDS011;9696;53.686;10.094;2023-01-28T09:35:40;9.87;;;6.60;;
19127;SDS011;9696;53.686;10.094;2023-01-28T09:38:09;13.53;;;6.73;;
19127;SDS011;9696;53.686;10.094;2023-01-28T09:40:39;11.33;;;6.87;;
19127;SDS011;9696;53.686;10.094;2023-01-28T09:46:20;7.70;;;4.93;;
19127;SDS011;9696;53.686;10.094;2023-01-28T09:48:55;7.23;;;4.33;;
19127;SDS011;9696;53.686;10.094;2023-01-28T09:51:32;10.27;;;3.83;;
19127;SDS011;9696;53.686;10.094;2023-01-28T09:54:09;6.83;;;3.80;;
19127;SDS011;9696;53.686;10.094;2023-01-28T09:56:47;4.87;;;3.43;;
19127;SDS011;9696;53.686;10.094;2023-01-28T09:59:25;6.97;;;3.73;;
19127;SDS011;9696;53.686;10.094;2023-01-28T10:01:56;5.87;;;3.20;;
19127;SDS011;9696;53.686;10.094;2023-01-28T10:04:37;5.83;;;3.07;;
19127;SDS011;9696;53.686;10.094;2023-01-28T10:07:21;4.77;;;3.80;;
19127;SDS011;9696;53.686;10.094;2023-01-28T10:10:02;4.60;;;3.10;;
19127;SDS011;9696;53.686;10.094;2023-01-28T10:12:47;4.47;;;3.40;;
19127;SDS011;9696;53.686;10.094;2023-01-28T10:15:27;7.13;;;3.00;;
19127;SDS011;9696;53.686;10.094;2023-01-28T10:18:15;7.13;;;3.27;;
19127;SDS011;9696;53.686;10.094;2023-01-28T10:20:53;5.90;;;3.53;;
19127;SDS011;9696;53.686;10.094;2023-01-28T10:23:31;8.43;;;3.60;;
19127;SDS011;9696;53.686;10.094;2023-01-28T10:26:10;6.00;;;3.63;;
19127;SDS011;9696;53.686;10.094;2023-01-28T10:28:48;5.70;;;3.87;;
19127;SDS011;9696;53.686;10.094;2023-01-28T10:31:27;9.00;;;4.20;;
19127;SDS011;9696;53.686;10.094;2023-01-28T10:34:00;5.37;;;3.97;;
19127;SDS011;9696;53.686;10.094;2023-01-28T10:36:31;10.40;;;4.30;;
19127;SDS011;9696;53.686;10.094;2023-01-28T10:39:02;6.23;;;4.03;;
19127;SDS011;9696;53.686;10.094;2023-01-28T10:41:34;7.97;;;4.27;;
19127;SDS011;9696;53.686;10.094;2023-01-28T10:44:15;9.33;;;4.27;;
19127;SDS011;9696;53.686;10.094;2023-01-28T10:46:48;9.43;;;4.27;;
19127;SDS011;9696;53.686;10.094;2023-01-28T10:49:21;8.40;;;4.03;;
19127;SDS011;9696;53.686;10.094;2023-01-28T10:51:53;6.07;;;3.73;;
19127;SDS011;9696;53.686;10.094;2023-01-28T10:54:24;9.37;;;4.77;;
19127;SDS011;9696;53.686;10.094;2023-01-28T10:56:56;6.13;;;3.80;;
19127;SDS011;9696;53.686;10.094;2023-01-28T10:59:29;10.43;;;4.40;;
19127;SDS011;9696;53.686;10.094;2023-01-28T11:02:00;7.27;;;4.47;;
19127;SDS011;9696;53.686;10.094;2023-01-28T11:04:32;6.83;;;3.83;;
19127;SDS011;9696;53.686;10.094;2023-01-28T11:07:04;8.40;;;3.70;;
19127;SDS011;9696;53.686;10.094;2023-01-28T11:09:45;6.83;;;4.43;;
19127;SDS011;9696;53.686;10.094;2023-01-28T11:12:19;7.97;;;4.33;;
19127;SDS011;9696;53.686;10.094;2023-01-28T11:14:49;5.43;;;3.83;;
19127;SDS011;9696;53.686;10.094;2023-01-28T11:17:20;7.57;;;4.57;;
19127;SDS011;9696;53.686;10.094;2023-01-28T11:19:51;6.37;;;4.40;;
19127;SDS011;9696;53.686;10.094;2023-01-28T11:22:23;5.20;;;3.93;;
19127;SDS011;9696;53.686;10.094;2023-01-28T11:25:01;8.23;;;4.00;;
19127;SDS011;9696;53.686;10.094;2023-01-28T11:27:32;6.93;;;3.90;;
19127;SDS011;9696;53.686;10.094;2023-01-28T11:30:02;6.23;;;4.03;;
19127;SDS011;9696;53.686;10.094;2023-01-28T11:32:33;6.53;;;4.07;;
19127;SDS011;9696;53.686;10.094;2023-01-28T11:35:04;9.30;;;4.00;;
19127;SDS011;9696;53.686;10.094;2023-01-28T11:37:33;8.30;;;4.07;;
19127;SDS011;9696;53.686;10.094;2023-01-28T11:40:14;7.90;;;4.53;;
19127;SDS011;9696;53.686;10.094;2023-01-28T11:42:48;11.40;;;4.23;;
19127;SDS011;9696;53.686;10.094;2023-01-28T11:45:19;9.07;;;4.00;;
19127;SDS011;9696;53.686;10.094;2023-01-28T11:47:57;5.13;;;3.77;;
19127;SDS011;9696;53.686;10.094;2023-01-28T11:50:47;6.17;;;4.10;;
19127;SDS011;9696;53.686;10.094;2023-01-28T11:53:26;8.90;;;4.17;;
19127;SDS011;9696;53.686;10.094;2023-01-28T11:56:11;8.10;;;4.03;;
19127;SDS011;9696;53.686;10.094;2023-01-28T11:58:55;6.43;;;4.20;;
19127;SDS011;9696;53.686;10.094;2023-01-28T12:01:38;4.53;;;3.17;;
19127;SDS011;9696;53.686;10.094;2023-01-28T12:04:19;8.57;;;4.53;;
19127;SDS011;9696;53.686;10.094;2023-01-28T12:07:07;6.77;;;4.87;;
19127;SDS011;9696;53.686;10.094;2023-01-28T12:09:47;9.20;;;5.27;;
19127;SDS011;9696;53.686;10.094;2023-01-28T12:15:23;6.47;;;4.83;;
19127;SDS011;9696;53.686;10.094;2023-01-28T12:18:21;11.53;;;5.80;;
19127;SDS011;9696;53.686;10.094;2023-01-28T12:21:04;8.63;;;5.50;;
19127;SDS011;9696;53.686;10.094;2023-01-28T12:23:40;9.03;;;5.40;;
19127;SDS011;9696;53.686;10.094;2023-01-28T12:26:25;8.67;;;5.47;;
19127;SDS011;9696;53.686;10.094;2023-01-28T12:29:07;8.23;;;5.03;;
19127;SDS011;9696;53.686;10.094;2023-01-28T12:31:59;7.73;;;4.93;;
19127;SDS011;9696;53.686;10.094;2023-01-28T12:34:44;6.30;;;4.53;;
19127;SDS011;9696;53.686;10.094;2023-01-28T12:37:33;12.33;;;4.43;;
19127;SDS011;9696;53.686;10.094;2023-01-28T12:40:18;8.83;;;4.97;;
19127;SDS011;9696;53.686;10.094;2023-01-28T12:43:01;6.93;;;4.87;;
19127;SDS011;9696;53.686;10.094;2023-01-28T12:45:37;5.33;;;3.90;;
19127;SDS011;9696;53.686;10.094;2023-01-28T12:48:08;8.90;;;5.33;;
19127;SDS011;9696;53.686;10.094;2023-01-28T12:50:43;12.83;;;5.57;;
19127;SDS011;9696;53.686;10.094;2023-01-28T12:53:19;10.83;;;5.93;;
19127;SDS011;9696;53.686;10.094;2023-01-28T12:55:53;8.27;;;5.50;;
19127;SDS011;9696;53.686;10.094;2023-01-28T12:58:32;7.57;;;5.07;;
19127;SDS011;9696;53.686;10.094;2023-01-28T13:01:09;10.17;;;5.60;;
19127;SDS011;9696;53.686;10.094;2023-01-28T13:03:46;9.27;;;5.50;;
19127;SDS011;9696;53.686;10.094;2023-01-28T13:06:21;10.90;;;5.30;;
19127;SDS011;9696;53.686;10.094;2023-01-28T13:08:55;9.27;;;5.40;;
19127;SDS011;9696;53.686;10.094;2023-01-28T13:11:30;11.23;;;5.60;;
19127;SDS011;9696;53.686;10.094;2023-01-28T13:14:02;8.60;;;5.73;;
19127;SDS011;9696;53.686;10.094;2023-01-28T13:16:33;8.27;;;5.33;;
19127;SDS011;9696;53.686;10.094;2023-01-28T13:19:05;10.43;;;5.80;;
19127;SDS011;9696;53.686;10.094;2023-01-28T13:21:36;11.20;;;5.47;;
19127;SDS011;9696;53.686;10.094;2023-01-28T13:24:19;11.40;;;6.37;;
19127;SDS011;9696;53.686;10.094;2023-01-28T13:26:57;8.27;;;5.03;;
19127;SDS011;9696;53.686;10.094;2023-01-28T13:29:38;8.70;;;5.73;;
19127;SDS011;9696;53.686;10.094;2023-01-28T13:32:28;9.10;;;5.93;;
19127;SDS011;9696;53.686;10.094;2023-01-28T13:35:04;12.43;;;6.33;;
19127;SDS011;9696;53.686;10.094;2023-01-28T13:37:36;9.33;;;5.33;;
19127;SDS011;9696;53.686;10.094;2023-01-28T13:40:21;10.37;;;6.03;;
19127;SDS011;9696;53.686;10.094;2023-01-28T13:42:57;11.03;;;6.20;;
19127;SDS011;9696;53.686;10.094;2023-01-28T13:45:28;10.00;;;6.40;;
19127;SDS011;9696;53.686;10.094;2023-01-28T13:48:01;12.60;;;7.17;;
19127;SDS011;9696;53.686;10.094;2023-01-28T13:50:46;14.67;;;8.33;;
19127;SDS011;9696;53.686;10.094;2023-01-28T13:53:21;13.77;;;6.40;;
19127;SDS011;9696;53.686;10.094;2023-01-28T13:55:57;11.03;;;6.63;;
19127;SDS011;9696;53.686;10.094;2023-01-28T14:07:51;15.60;;;7.17;;
19127;SDS011;9696;53.686;10.094;2023-01-28T14:10:53;10.97;;;6.93;;
19127;SDS011;9696;53.686;10.094;2023-01-28T14:13:37;12.60;;;6.63;;
19127;SDS011;9696;53.686;10.094;2023-01-28T14:16:40;14.33;;;6.10;;
19127;SDS011;9696;53.686;10.094;2023-01-28T14:19:21;11.53;;;6.57;;
19127;SDS011;9696;53.686;10.094;2023-01-28T14:21:55;11.97;;;6.73;;
19127;SDS011;9696;53.686;10.094;2023-01-28T14:24:26;12.60;;;6.53;;
19127;SDS011;9696;53.686;10.094;2023-01-28T14:26:56;10.17;;;6.03;;
19127;SDS011;9696;53.686;10.094;2023-01-28T14:29:34;13.90;;;7.37;;
19127;SDS011;9696;53.686;10.094;2023-01-28T14:32:12;14.80;;;7.40;;
19127;SDS011;9696;53.686;10.094;2023-01-28T14:34:43;14.27;;;7.30;;
19127;SDS011;9696;53.686;10.094;2023-01-28T14:37:15;13.07;;;7.50;;
19127;SDS011;9696;53.686;10.094;2023-01-28T14:39:50;16.70;;;7.53;;
19127;SDS011;9696;53.686;10.094;2023-01-28T14:42:23;14.60;;;7.43;;
19127;SDS011;9696;53.686;10.094;2023-01-28T14:44:58;13.07;;;7.77;;
19127;SDS011;9696;53.686;10.094;2023-01-28T14:47:45;13.37;;;6.80;;
19127;SDS011;9696;53.686;10.094;2023-01-28T14:50:29;13.23;;;8.03;;
19127;SDS011;9696;53.686;10.094;2023-01-28T14:53:25;12.33;;;7.50;;
19127;SDS011;9696;53.686;10.094;2023-01-28T14:56:14;14.17;;;6.93;;
19127;SDS011;9696;53.686;10.094;2023-01-28T14:58:55;11.37;;;6.93;;
19127;SDS011;9696;53.686;10.094;2023-01-28T15:01:30;16.23;;;7.27;;
19127;SDS011;9696;53.686;10.094;2023-01-28T15:03:59;11.83;;;7.53;;
19127;SDS011;9696;53.686;10.094;2023-01-28T15:06:29;11.63;;;6.83;;
19127;SDS011;9696;53.686;10.094;2023-01-28T15:09:05;14.00;;;7.27;;
19127;SDS011;9696;53.686;10.094;2023-01-28T15:11:38;12.43;;;7.27;;
19127;SDS011;9696;53.686;10.094;2023-01-28T15:14:11;12.77;;;7.37;;
19127;SDS011;9696;53.686;10.094;2023-01-28T15:16:47;15.77;;;8.10;;
19127;SDS011;9696;53.686;10.094;2023-01-28T15:19:17;13.13;;;7.33;;
19127;SDS011;9696;53.686;10.094;2023-01-28T15:21:53;11.67;;;7.27;;
19127;SDS011;9696;53.686;10.094;2023-01-28T15:24:24;11.70;;;6.73;;
19127;SDS011;9696;53.686;10.094;2023-01-28T15:26:56;13.70;;;7.07;;
19127;SDS011;9696;53.686;10.094;2023-01-28T15:29:30;11.03;;;6.60;;
19127;SDS011;9696;53.686;10.094;2023-01-28T15:32:01;21.20;;;7.77;;
19127;SDS011;9696;53.686;10.094;2023-01-28T15:34:31;13.50;;;7.90;;
19127;SDS011;9696;53.686;10.094;2023-01-28T15:37:00;13.10;;;7.87;;
19127;SDS011;9696;53.686;10.094;2023-01-28T15:39:29;17.60;;;8.73;;
19127;SDS011;9696;53.686;10.094;2023-01-28T15:42:00;13.67;;;7.97;;
19127;SDS011;9696;53.686;10.094;2023-01-28T15:44:34;13.00;;;7.37;;